Alne, United Kingdom
Current Conditions -  °F | °C
As of 6:50 PM on Friday 28 Nov 2014 (Local Time) from EGXU Reporting Station
Overcast Overcast  
Wind Chill: 50°   Ceiling: 400
Heat Index: 50°   Visibility: 2.3mi
Dew Point: 48°   Wind: 6mph
Humidity: 94%   Direction: 90°E
Pressure: 29.8"   Gusts: NA
Location:  54.08°N, 1.1°W
Report Text: EGXU 281850Z AUTO 09005KT 3700 // OVC004/// 10/09 Q1009
Loading
Personal Weather Stations






























Interactive Weather Map New forecast layout! Learn more

10-Day Weather Forecast

Advertisements
Track Severe Weather on mobile